Current Weather

Lewis University

Chicago/Romeoville, Illinois (KLOT)

Report from: Sunday, February 5, 2023 11:15 PM CST
Current time: Sunday, February 5, 2023 11:33 PM CST

Nearby weather
Weather history
Weather forecast

Temperature-2.0°C (28.4°F)
Dew point-3.0°C (26.6°F)
Winds Calm
Visibility9 mi. (14.5 km)
Clouds Sky clear
Altimeter30.16 in.Hg (1021 mB)
Relative humidity93 %
Density altitude-2,287 ft. (-697 m)
Remarks Fully automated report
Automated weather observing station with precipitation discriminator
Flight conditions Visual Meteorological Conditions
Raw dataKLOT 060515Z AUTO 00000KT 9SM CLR M02/M03 A3016 RMK AO2
An error has occurred. This application may no longer respond until reloaded. Reload 🗙